sensor_id;sensor_type;location;lat;lon;timestamp;P1;durP1;ratioP1;P2;durP2;ratioP2
52734;SDS011;38631;47.572;10.704;2023-05-18T00:01:39;3.88;;;2.22;;
52734;SDS011;38631;47.572;10.704;2023-05-18T00:04:05;5.43;;;2.05;;
52734;SDS011;38631;47.572;10.704;2023-05-18T00:06:32;3.05;;;2.00;;
52734;SDS011;38631;47.572;10.704;2023-05-18T00:08:57;3.90;;;2.00;;
52734;SDS011;38631;47.572;10.704;2023-05-18T00:11:23;3.05;;;2.10;;
52734;SDS011;38631;47.572;10.704;2023-05-18T00:13:48;3.55;;;2.15;;
52734;SDS011;38631;47.572;10.704;2023-05-18T00:16:13;3.97;;;2.28;;
52734;SDS011;38631;47.572;10.704;2023-05-18T00:18:39;5.90;;;2.85;;
52734;SDS011;38631;47.572;10.704;2023-05-18T00:21:05;3.88;;;2.10;;
52734;SDS011;38631;47.572;10.704;2023-05-18T00:23:33;3.72;;;1.80;;
52734;SDS011;38631;47.572;10.704;2023-05-18T00:25:59;4.60;;;2.22;;
52734;SDS011;38631;47.572;10.704;2023-05-18T00:28:26;3.83;;;2.30;;
52734;SDS011;38631;47.572;10.704;2023-05-18T00:30:52;3.40;;;2.08;;
52734;SDS011;38631;47.572;10.704;2023-05-18T00:33:18;5.03;;;2.72;;
52734;SDS011;38631;47.572;10.704;2023-05-18T00:35:44;4.15;;;2.50;;
52734;SDS011;38631;47.572;10.704;2023-05-18T00:38:09;4.47;;;2.45;;
52734;SDS011;38631;47.572;10.704;2023-05-18T00:40:36;4.68;;;2.30;;
52734;SDS011;38631;47.572;10.704;2023-05-18T00:43:01;3.38;;;2.15;;
52734;SDS011;38631;47.572;10.704;2023-05-18T00:45:27;4.22;;;2.72;;
52734;SDS011;38631;47.572;10.704;2023-05-18T00:47:52;3.38;;;2.10;;
52734;SDS011;38631;47.572;10.704;2023-05-18T00:50:18;5.95;;;2.22;;
52734;SDS011;38631;47.572;10.704;2023-05-18T00:52:43;2.92;;;2.10;;
52734;SDS011;38631;47.572;10.704;2023-05-18T00:55:10;3.70;;;2.38;;
52734;SDS011;38631;47.572;10.704;2023-05-18T00:57:36;4.07;;;2.70;;
52734;SDS011;38631;47.572;10.704;2023-05-18T01:00:03;2.42;;;1.83;;
52734;SDS011;38631;47.572;10.704;2023-05-18T01:02:31;3.30;;;2.33;;
52734;SDS011;38631;47.572;10.704;2023-05-18T01:04:57;6.10;;;2.67;;
52734;SDS011;38631;47.572;10.704;2023-05-18T01:07:24;4.47;;;2.63;;
52734;SDS011;38631;47.572;10.704;2023-05-18T01:09:51;4.22;;;2.58;;
52734;SDS011;38631;47.572;10.704;2023-05-18T01:12:19;7.47;;;2.20;;
52734;SDS011;38631;47.572;10.704;2023-05-18T01:15:09;4.95;;;2.00;;
52734;SDS011;38631;47.572;10.704;2023-05-18T01:20:35;4.22;;;2.95;;
52734;SDS011;38631;47.572;10.704;2023-05-18T01:23:20;3.30;;;2.50;;
52734;SDS011;38631;47.572;10.704;2023-05-18T01:26:14;3.65;;;2.22;;
52734;SDS011;38631;47.572;10.704;2023-05-18T01:28:53;3.22;;;2.10;;
52734;SDS011;38631;47.572;10.704;2023-05-18T01:31:21;3.88;;;2.25;;
52734;SDS011;38631;47.572;10.704;2023-05-18T01:33:46;3.38;;;2.45;;
52734;SDS011;38631;47.572;10.704;2023-05-18T01:36:12;5.47;;;2.28;;
52734;SDS011;38631;47.572;10.704;2023-05-18T01:38:37;4.40;;;2.20;;
52734;SDS011;38631;47.572;10.704;2023-05-18T01:41:17;7.15;;;2.08;;
52734;SDS011;38631;47.572;10.704;2023-05-18T01:43:52;3.33;;;1.73;;
52734;SDS011;38631;47.572;10.704;2023-05-18T01:49:37;5.90;;;2.67;;
52734;SDS011;38631;47.572;10.704;2023-05-18T01:52:18;3.03;;;2.40;;
52734;SDS011;38631;47.572;10.704;2023-05-18T01:54:49;5.90;;;2.50;;
52734;SDS011;38631;47.572;10.704;2023-05-18T01:57:16;3.30;;;2.45;;
52734;SDS011;38631;47.572;10.704;2023-05-18T01:59:43;4.30;;;2.08;;
52734;SDS011;38631;47.572;10.704;2023-05-18T02:02:10;4.40;;;2.15;;
52734;SDS011;38631;47.572;10.704;2023-05-18T02:04:35;3.78;;;2.65;;
52734;SDS011;38631;47.572;10.704;2023-05-18T02:07:01;3.85;;;2.58;;
52734;SDS011;38631;47.572;10.704;2023-05-18T02:09:27;3.55;;;2.28;;
52734;SDS011;38631;47.572;10.704;2023-05-18T02:11:52;4.88;;;2.70;;
52734;SDS011;38631;47.572;10.704;2023-05-18T02:14:18;3.83;;;2.10;;
52734;SDS011;38631;47.572;10.704;2023-05-18T02:16:43;6.32;;;2.88;;
52734;SDS011;38631;47.572;10.704;2023-05-18T02:19:11;5.50;;;2.67;;
52734;SDS011;38631;47.572;10.704;2023-05-18T02:21:37;3.78;;;2.42;;
52734;SDS011;38631;47.572;10.704;2023-05-18T02:24:03;5.20;;;3.75;;
52734;SDS011;38631;47.572;10.704;2023-05-18T02:26:29;5.28;;;2.47;;
52734;SDS011;38631;47.572;10.704;2023-05-18T02:28:55;5.63;;;3.33;;
52734;SDS011;38631;47.572;10.704;2023-05-18T02:31:20;3.78;;;2.30;;
52734;SDS011;38631;47.572;10.704;2023-05-18T02:33:45;4.05;;;2.35;;
52734;SDS011;38631;47.572;10.704;2023-05-18T02:36:12;4.53;;;2.47;;
52734;SDS011;38631;47.572;10.704;2023-05-18T02:38:38;3.78;;;2.88;;
52734;SDS011;38631;47.572;10.704;2023-05-18T02:41:09;4.55;;;2.38;;
52734;SDS011;38631;47.572;10.704;2023-05-18T02:43:34;3.45;;;2.30;;
52734;SDS011;38631;47.572;10.704;2023-05-18T02:46:00;3.10;;;2.30;;
52734;SDS011;38631;47.572;10.704;2023-05-18T02:48:26;3.65;;;2.00;;
52734;SDS011;38631;47.572;10.704;2023-05-18T02:50:52;4.50;;;2.63;;
52734;SDS011;38631;47.572;10.704;2023-05-18T02:53:18;3.20;;;2.38;;
52734;SDS011;38631;47.572;10.704;2023-05-18T02:55:43;3.40;;;1.88;;
52734;SDS011;38631;47.572;10.704;2023-05-18T02:58:10;4.80;;;2.63;;
52734;SDS011;38631;47.572;10.704;2023-05-18T03:00:37;3.33;;;2.35;;
52734;SDS011;38631;47.572;10.704;2023-05-18T03:03:03;5.68;;;2.53;;
52734;SDS011;38631;47.572;10.704;2023-05-18T03:05:28;3.17;;;1.92;;
52734;SDS011;38631;47.572;10.704;2023-05-18T03:07:53;3.63;;;1.85;;
52734;SDS011;38631;47.572;10.704;2023-05-18T03:10:19;3.65;;;2.15;;
52734;SDS011;38631;47.572;10.704;2023-05-18T03:12:46;7.28;;;2.63;;
52734;SDS011;38631;47.572;10.704;2023-05-18T03:15:12;5.95;;;2.65;;
52734;SDS011;38631;47.572;10.704;2023-05-18T03:17:40;5.55;;;2.50;;
52734;SDS011;38631;47.572;10.704;2023-05-18T03:20:07;3.42;;;2.45;;
52734;SDS011;38631;47.572;10.704;2023-05-18T03:22:34;3.47;;;2.33;;
52734;SDS011;38631;47.572;10.704;2023-05-18T03:24:59;5.68;;;2.63;;
52734;SDS011;38631;47.572;10.704;2023-05-18T03:27:26;5.20;;;2.92;;
52734;SDS011;38631;47.572;10.704;2023-05-18T03:29:51;6.53;;;2.40;;
52734;SDS011;38631;47.572;10.704;2023-05-18T03:32:18;4.90;;;2.65;;
52734;SDS011;38631;47.572;10.704;2023-05-18T03:34:44;5.03;;;2.63;;
52734;SDS011;38631;47.572;10.704;2023-05-18T03:37:11;6.82;;;2.50;;
52734;SDS011;38631;47.572;10.704;2023-05-18T03:39:37;4.90;;;2.50;;
52734;SDS011;38631;47.572;10.704;2023-05-18T03:42:02;6.53;;;3.20;;
52734;SDS011;38631;47.572;10.704;2023-05-18T03:44:28;6.13;;;2.40;;
52734;SDS011;38631;47.572;10.704;2023-05-18T03:46:53;3.30;;;2.53;;
52734;SDS011;38631;47.572;10.704;2023-05-18T03:49:19;5.00;;;2.72;;
52734;SDS011;38631;47.572;10.704;2023-05-18T03:51:44;3.60;;;2.38;;
52734;SDS011;38631;47.572;10.704;2023-05-18T03:54:09;3.80;;;2.67;;
52734;SDS011;38631;47.572;10.704;2023-05-18T03:56:35;5.07;;;2.72;;
52734;SDS011;38631;47.572;10.704;2023-05-18T03:59:00;5.53;;;3.00;;
52734;SDS011;38631;47.572;10.704;2023-05-18T04:01:27;4.63;;;3.35;;
52734;SDS011;38631;47.572;10.704;2023-05-18T04:03:56;5.53;;;3.17;;
52734;SDS011;38631;47.572;10.704;2023-05-18T04:06:22;5.57;;;3.33;;
52734;SDS011;38631;47.572;10.704;2023-05-18T04:08:47;4.63;;;2.63;;
52734;SDS011;38631;47.572;10.704;2023-05-18T04:11:14;6.72;;;3.40;;
52734;SDS011;38631;47.572;10.704;2023-05-18T04:13:39;6.03;;;3.15;;
52734;SDS011;38631;47.572;10.704;2023-05-18T04:16:05;6.65;;;3.08;;
52734;SDS011;38631;47.572;10.704;2023-05-18T04:18:31;5.55;;;3.30;;
52734;SDS011;38631;47.572;10.704;2023-05-18T04:20:57;7.30;;;3.28;;
52734;SDS011;38631;47.572;10.704;2023-05-18T04:23:22;6.18;;;3.28;;
52734;SDS011;38631;47.572;10.704;2023-05-18T04:25:47;6.78;;;3.83;;
52734;SDS011;38631;47.572;10.704;2023-05-18T04:28:13;4.40;;;2.95;;
52734;SDS011;38631;47.572;10.704;2023-05-18T04:30:38;5.20;;;3.75;;
52734;SDS011;38631;47.572;10.704;2023-05-18T04:33:04;6.32;;;3.30;;
52734;SDS011;38631;47.572;10.704;2023-05-18T04:35:30;5.75;;;3.58;;
52734;SDS011;38631;47.572;10.704;2023-05-18T04:37:56;6.47;;;3.70;;
52734;SDS011;38631;47.572;10.704;2023-05-18T04:40:21;5.25;;;3.25;;
52734;SDS011;38631;47.572;10.704;2023-05-18T04:42:49;5.45;;;3.33;;
52734;SDS011;38631;47.572;10.704;2023-05-18T04:45:21;6.18;;;3.40;;
52734;SDS011;38631;47.572;10.704;2023-05-18T04:47:49;5.97;;;3.97;;
52734;SDS011;38631;47.572;10.704;2023-05-18T04:50:18;5.88;;;3.35;;
52734;SDS011;38631;47.572;10.704;2023-05-18T04:52:45;6.90;;;3.63;;
52734;SDS011;38631;47.572;10.704;2023-05-18T04:55:16;5.03;;;3.30;;
52734;SDS011;38631;47.572;10.704;2023-05-18T04:57:49;4.72;;;3.33;;
52734;SDS011;38631;47.572;10.704;2023-05-18T05:00:17;6.03;;;4.07;;
52734;SDS011;38631;47.572;10.704;2023-05-18T05:02:43;6.40;;;4.03;;
52734;SDS011;38631;47.572;10.704;2023-05-18T05:05:09;6.35;;;4.25;;
52734;SDS011;38631;47.572;10.704;2023-05-18T05:07:34;8.25;;;3.83;;
52734;SDS011;38631;47.572;10.704;2023-05-18T05:10:00;6.47;;;4.40;;
52734;SDS011;38631;47.572;10.704;2023-05-18T05:12:26;6.85;;;4.22;;
52734;SDS011;38631;47.572;10.704;2023-05-18T05:14:52;7.75;;;4.43;;
52734;SDS011;38631;47.572;10.704;2023-05-18T05:17:17;5.70;;;3.67;;
52734;SDS011;38631;47.572;10.704;2023-05-18T05:19:42;4.35;;;3.03;;
52734;SDS011;38631;47.572;10.704;2023-05-18T05:22:08;6.57;;;3.90;;
52734;SDS011;38631;47.572;10.704;2023-05-18T05:24:33;5.28;;;3.58;;
52734;SDS011;38631;47.572;10.704;2023-05-18T05:26:58;5.93;;;3.50;;
52734;SDS011;38631;47.572;10.704;2023-05-18T05:29:24;8.45;;;4.53;;
52734;SDS011;38631;47.572;10.704;2023-05-18T05:31:50;6.57;;;3.70;;
52734;SDS011;38631;47.572;10.704;2023-05-18T05:34:16;6.07;;;3.47;;
52734;SDS011;38631;47.572;10.704;2023-05-18T05:36:41;5.45;;;3.58;;
52734;SDS011;38631;47.572;10.704;2023-05-18T05:39:07;5.80;;;3.55;;
52734;SDS011;38631;47.572;10.704;2023-05-18T05:41:32;4.40;;;3.00;;
52734;SDS011;38631;47.572;10.704;2023-05-18T05:43:57;9.93;;;3.60;;
52734;SDS011;38631;47.572;10.704;2023-05-18T05:46:23;4.07;;;3.17;;
52734;SDS011;38631;47.572;10.704;2023-05-18T05:48:48;6.80;;;3.50;;
52734;SDS011;38631;47.572;10.704;2023-05-18T05:51:13;7.55;;;3.70;;
52734;SDS011;38631;47.572;10.704;2023-05-18T05:53:40;6.00;;;3.83;;
52734;SDS011;38631;47.572;10.704;2023-05-18T05:56:07;7.20;;;3.67;;
52734;SDS011;38631;47.572;10.704;2023-05-18T05:58:32;8.45;;;3.40;;
52734;SDS011;38631;47.572;10.704;2023-05-18T06:00:58;6.22;;;3.45;;
52734;SDS011;38631;47.572;10.704;2023-05-18T06:03:40;5.57;;;3.75;;
52734;SDS011;38631;47.572;10.704;2023-05-18T06:06:05;5.88;;;3.13;;
52734;SDS011;38631;47.572;10.704;2023-05-18T06:08:30;5.65;;;3.60;;
52734;SDS011;38631;47.572;10.704;2023-05-18T06:10:56;4.22;;;2.85;;
52734;SDS011;38631;47.572;10.704;2023-05-18T06:13:21;5.32;;;2.78;;
52734;SDS011;38631;47.572;10.704;2023-05-18T06:15:49;10.27;;;3.50;;
52734;SDS011;38631;47.572;10.704;2023-05-18T06:18:23;4.53;;;2.97;;
52734;SDS011;38631;47.572;10.704;2023-05-18T06:20:49;5.85;;;3.92;;
52734;SDS011;38631;47.572;10.704;2023-05-18T06:23:14;7.03;;;3.08;;
52734;SDS011;38631;47.572;10.704;2023-05-18T06:25:46;6.38;;;3.08;;
52734;SDS011;38631;47.572;10.704;2023-05-18T06:28:12;6.18;;;3.85;;
52734;SDS011;38631;47.572;10.704;2023-05-18T06:30:38;7.47;;;3.00;;
52734;SDS011;38631;47.572;10.704;2023-05-18T06:33:03;4.88;;;3.03;;
52734;SDS011;38631;47.572;10.704;2023-05-18T06:35:29;4.72;;;3.22;;
52734;SDS011;38631;47.572;10.704;2023-05-18T06:37:56;5.05;;;3.05;;
52734;SDS011;38631;47.572;10.704;2023-05-18T06:40:24;4.43;;;2.67;;
52734;SDS011;38631;47.572;10.704;2023-05-18T06:42:50;5.35;;;3.45;;
52734;SDS011;38631;47.572;10.704;2023-05-18T06:45:16;6.00;;;3.58;;
52734;SDS011;38631;47.572;10.704;2023-05-18T06:47:43;6.53;;;3.17;;
52734;SDS011;38631;47.572;10.704;2023-05-18T06:50:21;5.55;;;3.50;;
52734;SDS011;38631;47.572;10.704;2023-05-18T06:52:48;7.93;;;4.38;;
52734;SDS011;38631;47.572;10.704;2023-05-18T06:55:15;6.28;;;3.33;;
52734;SDS011;38631;47.572;10.704;2023-05-18T06:57:44;6.25;;;3.55;;
52734;SDS011;38631;47.572;10.704;2023-05-18T07:07:02;8.45;;;3.47;;
52734;SDS011;38631;47.572;10.704;2023-05-18T07:09:28;9.02;;;4.10;;
52734;SDS011;38631;47.572;10.704;2023-05-18T07:12:07;7.55;;;3.47;;
52734;SDS011;38631;47.572;10.704;2023-05-18T07:14:43;6.90;;;4.00;;
52734;SDS011;38631;47.572;10.704;2023-05-18T07:17:12;6.82;;;3.83;;
52734;SDS011;38631;47.572;10.704;2023-05-18T07:20:13;5.72;;;3.75;;
52734;SDS011;38631;47.572;10.704;2023-05-18T07:22:38;6.30;;;3.55;;
52734;SDS011;38631;47.572;10.704;2023-05-18T07:25:05;5.50;;;3.47;;
52734;SDS011;38631;47.572;10.704;2023-05-18T07:30:59;6.35;;;3.65;;
52734;SDS011;38631;47.572;10.704;2023-05-18T07:37:05;5.15;;;3.15;;
52734;SDS011;38631;47.572;10.704;2023-05-18T07:39:31;7.70;;;3.78;;
52734;SDS011;38631;47.572;10.704;2023-05-18T07:51:34;5.85;;;3.85;;
52734;SDS011;38631;47.572;10.704;2023-05-18T08:00:29;8.05;;;3.70;;
52734;SDS011;38631;47.572;10.704;2023-05-18T08:02:58;5.88;;;3.13;;
52734;SDS011;38631;47.572;10.704;2023-05-18T08:05:27;5.28;;;2.90;;
52734;SDS011;38631;47.572;10.704;2023-05-18T08:10:28;4.30;;;3.05;;
52734;SDS011;38631;47.572;10.704;2023-05-18T08:13:02;5.15;;;2.85;;
52734;SDS011;38631;47.572;10.704;2023-05-18T08:15:30;4.90;;;2.97;;
52734;SDS011;38631;47.572;10.704;2023-05-18T08:17:58;5.72;;;3.00;;
52734;SDS011;38631;47.572;10.704;2023-05-18T08:20:35;4.25;;;2.78;;
52734;SDS011;38631;47.572;10.704;2023-05-18T08:23:04;5.22;;;2.75;;
52734;SDS011;38631;47.572;10.704;2023-05-18T08:25:38;3.50;;;2.72;;
52734;SDS011;38631;47.572;10.704;2023-05-18T08:28:04;5.15;;;2.92;;
52734;SDS011;38631;47.572;10.704;2023-05-18T08:30:33;5.75;;;2.67;;
52734;SDS011;38631;47.572;10.704;2023-05-18T08:33:07;5.63;;;2.70;;
52734;SDS011;38631;47.572;10.704;2023-05-18T08:35:34;3.75;;;2.55;;
52734;SDS011;38631;47.572;10.704;2023-05-18T08:38:01;5.93;;;2.88;;
52734;SDS011;38631;47.572;10.704;2023-05-18T08:40:40;3.38;;;2.55;;
52734;SDS011;38631;47.572;10.704;2023-05-18T08:43:20;4.57;;;2.92;;
52734;SDS011;38631;47.572;10.704;2023-05-18T08:48:44;4.18;;;2.55;;
52734;SDS011;38631;47.572;10.704;2023-05-18T08:51:12;3.60;;;2.35;;
52734;SDS011;38631;47.572;10.704;2023-05-18T08:53:43;4.70;;;2.67;;
52734;SDS011;38631;47.572;10.704;2023-05-18T08:56:14;4.40;;;3.05;;
52734;SDS011;38631;47.572;10.704;2023-05-18T08:58:45;5.93;;;2.20;;
52734;SDS011;38631;47.572;10.704;2023-05-18T09:01:13;3.58;;;2.33;;
52734;SDS011;38631;47.572;10.704;2023-05-18T09:03:40;4.35;;;2.10;;
52734;SDS011;38631;47.572;10.704;2023-05-18T09:06:06;3.72;;;2.25;;
52734;SDS011;38631;47.572;10.704;2023-05-18T09:08:34;4.25;;;1.90;;
52734;SDS011;38631;47.572;10.704;2023-05-18T09:11:00;3.17;;;1.95;;
52734;SDS011;38631;47.572;10.704;2023-05-18T09:13:29;3.00;;;1.73;;
52734;SDS011;38631;47.572;10.704;2023-05-18T09:15:56;3.55;;;2.25;;
52734;SDS011;38631;47.572;10.704;2023-05-18T09:18:39;4.10;;;2.30;;
52734;SDS011;38631;47.572;10.704;2023-05-18T09:23:50;5.43;;;2.22;;
52734;SDS011;38631;47.572;10.704;2023-05-18T09:26:33;6.45;;;1.85;;
52734;SDS011;38631;47.572;10.704;2023-05-18T09:29:01;2.88;;;1.80;;
52734;SDS011;38631;47.572;10.704;2023-05-18T09:34:37;4.43;;;2.10;;
52734;SDS011;38631;47.572;10.704;2023-05-18T09:37:19;2.75;;;2.05;;
52734;SDS011;38631;47.572;10.704;2023-05-18T09:40:00;4.05;;;1.88;;
52734;SDS011;38631;47.572;10.704;2023-05-18T09:42:38;2.80;;;1.95;;
52734;SDS011;38631;47.572;10.704;2023-05-18T09:45:21;5.07;;;1.90;;
52734;SDS011;38631;47.572;10.704;2023-05-18T09:48:10;2.83;;;1.90;;
52734;SDS011;38631;47.572;10.704;2023-05-18T09:50:37;3.53;;;1.83;;
52734;SDS011;38631;47.572;10.704;2023-05-18T09:53:11;3.60;;;1.80;;
52734;SDS011;38631;47.572;10.704;2023-05-18T09:55:48;4.55;;;2.22;;
52734;SDS011;38631;47.572;10.704;2023-05-18T09:58:49;3.65;;;2.17;;
52734;SDS011;38631;47.572;10.704;2023-05-18T10:07:57;3.55;;;2.25;;
52734;SDS011;38631;47.572;10.704;2023-05-18T10:10:43;2.90;;;1.52;;
52734;SDS011;38631;47.572;10.704;2023-05-18T10:13:43;5.25;;;1.88;;
52734;SDS011;38631;47.572;10.704;2023-05-18T10:16:36;3.78;;;1.90;;
52734;SDS011;38631;47.572;10.704;2023-05-18T10:19:06;2.25;;;1.50;;
52734;SDS011;38631;47.572;10.704;2023-05-18T10:21:36;3.15;;;1.73;;
52734;SDS011;38631;47.572;10.704;2023-05-18T10:24:04;2.33;;;1.52;;
52734;SDS011;38631;47.572;10.704;2023-05-18T10:26:32;3.20;;;2.25;;
52734;SDS011;38631;47.572;10.704;2023-05-18T10:39:35;3.25;;;1.70;;
52734;SDS011;38631;47.572;10.704;2023-05-18T10:42:51;3.75;;;1.98;;
52734;SDS011;38631;47.572;10.704;2023-05-18T10:56:00;2.40;;;1.52;;
52734;SDS011;38631;47.572;10.704;2023-05-18T10:59:27;3.78;;;1.88;;
52734;SDS011;38631;47.572;10.704;2023-05-18T11:06:26;3.40;;;1.70;;
52734;SDS011;38631;47.572;10.704;2023-05-18T11:13:36;1.95;;;1.50;;
52734;SDS011;38631;47.572;10.704;2023-05-18T11:20:48;2.42;;;1.27;;
52734;SDS011;38631;47.572;10.704;2023-05-18T11:36:26;4.40;;;1.90;;
52734;SDS011;38631;47.572;10.704;2023-05-18T11:43:19;3.63;;;2.00;;
52734;SDS011;38631;47.572;10.704;2023-05-18T11:49:10;5.43;;;1.90;;
52734;SDS011;38631;47.572;10.704;2023-05-18T11:55:54;3.00;;;1.70;;
52734;SDS011;38631;47.572;10.704;2023-05-18T12:02:27;2.58;;;1.35;;
52734;SDS011;38631;47.572;10.704;2023-05-18T12:11:54;3.13;;;1.77;;
52734;SDS011;38631;47.572;10.704;2023-05-18T12:18:53;3.30;;;2.10;;
52734;SDS011;38631;47.572;10.704;2023-05-18T12:21:20;4.13;;;1.92;;
52734;SDS011;38631;47.572;10.704;2023-05-18T12:24:03;6.50;;;1.90;;
52734;SDS011;38631;47.572;10.704;2023-05-18T12:26:29;3.40;;;1.90;;
52734;SDS011;38631;47.572;10.704;2023-05-18T12:28:58;5.53;;;2.25;;
52734;SDS011;38631;47.572;10.704;2023-05-18T12:31:24;3.15;;;1.77;;
52734;SDS011;38631;47.572;10.704;2023-05-18T12:33:54;3.97;;;2.10;;
52734;SDS011;38631;47.572;10.704;2023-05-18T12:36:20;5.10;;;2.43;;
52734;SDS011;38631;47.572;10.704;2023-05-18T12:38:47;3.40;;;1.92;;
52734;SDS011;38631;47.572;10.704;2023-05-18T12:41:23;3.55;;;1.90;;
52734;SDS011;38631;47.572;10.704;2023-05-18T12:43:54;3.75;;;2.03;;
52734;SDS011;38631;47.572;10.704;2023-05-18T12:46:22;2.65;;;1.70;;
52734;SDS011;38631;47.572;10.704;2023-05-18T12:48:55;4.20;;;2.25;;
52734;SDS011;38631;47.572;10.704;2023-05-18T12:51:23;3.20;;;1.55;;
52734;SDS011;38631;47.572;10.704;2023-05-18T12:53:56;8.17;;;2.38;;
52734;SDS011;38631;47.572;10.704;2023-05-18T12:56:21;2.95;;;1.45;;
52734;SDS011;38631;47.572;10.704;2023-05-18T12:58:55;3.28;;;1.92;;
52734;SDS011;38631;47.572;10.704;2023-05-18T13:01:22;3.83;;;1.90;;
52734;SDS011;38631;47.572;10.704;2023-05-18T13:03:53;4.68;;;1.77;;
52734;SDS011;38631;47.572;10.704;2023-05-18T13:06:23;3.30;;;1.90;;
52734;SDS011;38631;47.572;10.704;2023-05-18T13:08:51;2.97;;;1.70;;
52734;SDS011;38631;47.572;10.704;2023-05-18T13:11:17;3.90;;;2.10;;
52734;SDS011;38631;47.572;10.704;2023-05-18T13:14:02;2.60;;;1.88;;
52734;SDS011;38631;47.572;10.704;2023-05-18T13:16:30;4.78;;;2.00;;
52734;SDS011;38631;47.572;10.704;2023-05-18T13:19:00;2.53;;;1.70;;
52734;SDS011;38631;47.572;10.704;2023-05-18T13:21:27;5.45;;;2.22;;
52734;SDS011;38631;47.572;10.704;2023-05-18T13:23:53;4.60;;;1.88;;
52734;SDS011;38631;47.572;10.704;2023-05-18T13:26:22;3.08;;;1.80;;
52734;SDS011;38631;47.572;10.704;2023-05-18T13:28:50;4.35;;;1.95;;
52734;SDS011;38631;47.572;10.704;2023-05-18T13:31:18;3.17;;;1.98;;
52734;SDS011;38631;47.572;10.704;2023-05-18T13:33:45;3.72;;;1.70;;
52734;SDS011;38631;47.572;10.704;2023-05-18T13:36:11;4.90;;;2.75;;
52734;SDS011;38631;47.572;10.704;2023-05-18T13:38:37;2.38;;;1.73;;
52734;SDS011;38631;47.572;10.704;2023-05-18T13:41:03;3.97;;;2.03;;
52734;SDS011;38631;47.572;10.704;2023-05-18T13:43:29;3.20;;;1.58;;
52734;SDS011;38631;47.572;10.704;2023-05-18T13:45:57;3.00;;;2.00;;
52734;SDS011;38631;47.572;10.704;2023-05-18T13:48:24;3.58;;;2.03;;
52734;SDS011;38631;47.572;10.704;2023-05-18T13:50:51;3.17;;;1.77;;
52734;SDS011;38631;47.572;10.704;2023-05-18T13:53:17;3.88;;;2.15;;
52734;SDS011;38631;47.572;10.704;2023-05-18T13:55:42;3.95;;;2.53;;
52734;SDS011;38631;47.572;10.704;2023-05-18T13:58:08;5.18;;;2.00;;
52734;SDS011;38631;47.572;10.704;2023-05-18T14:01:05;5.70;;;1.92;;
52734;SDS011;38631;47.572;10.704;2023-05-18T14:03:35;5.28;;;1.45;;
52734;SDS011;38631;47.572;10.704;2023-05-18T14:06:06;2.80;;;1.75;;
52734;SDS011;38631;47.572;10.704;2023-05-18T14:08:36;4.10;;;1.60;;
52734;SDS011;38631;47.572;10.704;2023-05-18T14:11:01;4.13;;;1.65;;
52734;SDS011;38631;47.572;10.704;2023-05-18T14:13:27;3.38;;;1.73;;
52734;SDS011;38631;47.572;10.704;2023-05-18T14:15:55;4.82;;;1.80;;
52734;SDS011;38631;47.572;10.704;2023-05-18T14:18:30;5.75;;;1.88;;
52734;SDS011;38631;47.572;10.704;2023-05-18T14:21:01;5.63;;;1.92;;
52734;SDS011;38631;47.572;10.704;2023-05-18T14:28:56;3.58;;;2.00;;
52734;SDS011;38631;47.572;10.704;2023-05-18T14:31:31;3.97;;;2.10;;
52734;SDS011;38631;47.572;10.704;2023-05-18T14:34:05;8.05;;;2.40;;
52734;SDS011;38631;47.572;10.704;2023-05-18T14:36:43;7.20;;;2.35;;
52734;SDS011;38631;47.572;10.704;2023-05-18T14:39:10;4.25;;;1.90;;
52734;SDS011;38631;47.572;10.704;2023-05-18T14:44:12;3.88;;;1.77;;
52734;SDS011;38631;47.572;10.704;2023-05-18T14:46:43;3.92;;;2.10;;
52734;SDS011;38631;47.572;10.704;2023-05-18T14:49:15;4.72;;;2.35;;
52734;SDS011;38631;47.572;10.704;2023-05-18T14:51:41;5.50;;;2.40;;
52734;SDS011;38631;47.572;10.704;2023-05-18T14:54:07;4.72;;;1.80;;
52734;SDS011;38631;47.572;10.704;2023-05-18T14:56:36;4.15;;;2.13;;
52734;SDS011;38631;47.572;10.704;2023-05-18T14:59:19;2.17;;;1.70;;
52734;SDS011;38631;47.572;10.704;2023-05-18T15:04:35;4.03;;;1.80;;
52734;SDS011;38631;47.572;10.704;2023-05-18T15:07:19;3.47;;;1.70;;
52734;SDS011;38631;47.572;10.704;2023-05-18T15:09:45;2.88;;;1.67;;
52734;SDS011;38631;47.572;10.704;2023-05-18T15:12:17;2.67;;;1.92;;
52734;SDS011;38631;47.572;10.704;2023-05-18T15:17:50;4.32;;;2.10;;
52734;SDS011;38631;47.572;10.704;2023-05-18T15:23:12;5.00;;;1.88;;
52734;SDS011;38631;47.572;10.704;2023-05-18T15:25:38;3.72;;;2.00;;
52734;SDS011;38631;47.572;10.704;2023-05-18T15:28:09;4.13;;;2.08;;
52734;SDS011;38631;47.572;10.704;2023-05-18T15:30:37;3.38;;;2.15;;
52734;SDS011;38631;47.572;10.704;2023-05-18T15:33:14;4.35;;;2.38;;
52734;SDS011;38631;47.572;10.704;2023-05-18T15:38:26;3.65;;;1.95;;
52734;SDS011;38631;47.572;10.704;2023-05-18T15:43:40;5.45;;;2.08;;
52734;SDS011;38631;47.572;10.704;2023-05-18T15:46:11;4.38;;;2.47;;
52734;SDS011;38631;47.572;10.704;2023-05-18T15:51:30;11.73;;;4.28;;
52734;SDS011;38631;47.572;10.704;2023-05-18T15:53:57;3.70;;;2.15;;
52734;SDS011;38631;47.572;10.704;2023-05-18T15:56:23;4.78;;;2.38;;
52734;SDS011;38631;47.572;10.704;2023-05-18T15:58:55;3.88;;;1.90;;
52734;SDS011;38631;47.572;10.704;2023-05-18T16:01:22;5.43;;;2.13;;
52734;SDS011;38631;47.572;10.704;2023-05-18T16:04:03;6.85;;;2.30;;
52734;SDS011;38631;47.572;10.704;2023-05-18T16:06:38;6.25;;;2.50;;
52734;SDS011;38631;47.572;10.704;2023-05-18T16:09:12;4.80;;;2.53;;
52734;SDS011;38631;47.572;10.704;2023-05-18T16:11:52;6.85;;;2.97;;
52734;SDS011;38631;47.572;10.704;2023-05-18T16:14:23;6.70;;;3.83;;
52734;SDS011;38631;47.572;10.704;2023-05-18T16:16:52;4.57;;;2.50;;
52734;SDS011;38631;47.572;10.704;2023-05-18T16:19:20;4.05;;;2.35;;
52734;SDS011;38631;47.572;10.704;2023-05-18T16:24:33;4.28;;;2.42;;
52734;SDS011;38631;47.572;10.704;2023-05-18T16:27:14;2.58;;;2.05;;
52734;SDS011;38631;47.572;10.704;2023-05-18T16:29:45;5.35;;;2.55;;
52734;SDS011;38631;47.572;10.704;2023-05-18T16:32:14;4.25;;;2.20;;
52734;SDS011;38631;47.572;10.704;2023-05-18T16:34:41;6.45;;;2.92;;
52734;SDS011;38631;47.572;10.704;2023-05-18T16:37:09;6.38;;;2.88;;
52734;SDS011;38631;47.572;10.704;2023-05-18T16:39:37;3.35;;;2.28;;
52734;SDS011;38631;47.572;10.704;2023-05-18T16:42:04;6.60;;;3.25;;
52734;SDS011;38631;47.572;10.704;2023-05-18T16:44:35;6.38;;;2.72;;
52734;SDS011;38631;47.572;10.704;2023-05-18T16:47:10;5.53;;;2.97;;
52734;SDS011;38631;47.572;10.704;2023-05-18T16:49:40;4.70;;;2.97;;
52734;SDS011;38631;47.572;10.704;2023-05-18T16:52:21;5.03;;;2.63;;
52734;SDS011;38631;47.572;10.704;2023-05-18T16:54:57;5.43;;;3.08;;
52734;SDS011;38631;47.572;10.704;2023-05-18T16:57:24;3.13;;;2.38;;
52734;SDS011;38631;47.572;10.704;2023-05-18T17:02:35;6.18;;;3.28;;
52734;SDS011;38631;47.572;10.704;2023-05-18T17:05:02;5.60;;;2.55;;
52734;SDS011;38631;47.572;10.704;2023-05-18T17:07:35;5.75;;;2.58;;
52734;SDS011;38631;47.572;10.704;2023-05-18T17:10:02;3.97;;;2.67;;
52734;SDS011;38631;47.572;10.704;2023-05-18T17:12:29;4.07;;;2.65;;
52734;SDS011;38631;47.572;10.704;2023-05-18T17:15:03;6.97;;;2.67;;
52734;SDS011;38631;47.572;10.704;2023-05-18T17:17:30;3.65;;;2.35;;
52734;SDS011;38631;47.572;10.704;2023-05-18T17:19:58;5.55;;;2.72;;
52734;SDS011;38631;47.572;10.704;2023-05-18T17:22:34;5.07;;;3.10;;
52734;SDS011;38631;47.572;10.704;2023-05-18T17:25:09;4.25;;;2.78;;
52734;SDS011;38631;47.572;10.704;2023-05-18T17:27:48;7.10;;;2.83;;